sensor_id;sensor_type;location;lat;lon;timestamp;pressure;altitude;pressure_sealevel;temperature;humidity
38780;BME280;29273;49.962;9.768;2024-02-04T00:01:15;100634.06;;;11.69;62.82
38780;BME280;29273;49.962;9.768;2024-02-04T00:03:40;100635.69;;;11.70;63.17
38780;BME280;29273;49.962;9.768;2024-02-04T00:06:06;100631.19;;;11.71;62.95
38780;BME280;29273;49.962;9.768;2024-02-04T00:08:32;100619.59;;;11.72;62.83
38780;BME280;29273;49.962;9.768;2024-02-04T00:10:57;100615.94;;;11.73;62.43
38780;BME280;29273;49.962;9.768;2024-02-04T00:13:23;100616.56;;;11.75;62.67
38780;BME280;29273;49.962;9.768;2024-02-04T00:15:48;100610.63;;;11.73;62.59
38780;BME280;29273;49.962;9.768;2024-02-04T00:18:14;100618.59;;;11.73;62.72
38780;BME280;29273;49.962;9.768;2024-02-04T00:20:39;100621.25;;;11.73;62.45
38780;BME280;29273;49.962;9.768;2024-02-04T00:23:05;100619.41;;;11.73;62.72
38780;BME280;29273;49.962;9.768;2024-02-04T00:25:31;100607.78;;;11.74;62.71
38780;BME280;29273;49.962;9.768;2024-02-04T00:27:56;100628.19;;;11.74;62.53
38780;BME280;29273;49.962;9.768;2024-02-04T00:30:22;100616.56;;;11.75;62.57
38780;BME280;29273;49.962;9.768;2024-02-04T00:32:47;100622.69;;;11.75;62.71
38780;BME280;29273;49.962;9.768;2024-02-04T00:35:13;100606.13;;;11.73;62.81
38780;BME280;29273;49.962;9.768;2024-02-04T00:37:38;100606.56;;;11.77;62.60
38780;BME280;29273;49.962;9.768;2024-02-04T00:40:04;100586.38;;;11.76;62.56
38780;BME280;29273;49.962;9.768;2024-02-04T00:42:30;100595.53;;;11.73;62.87
38780;BME280;29273;49.962;9.768;2024-02-04T00:44:55;100613.09;;;11.74;62.90
38780;BME280;29273;49.962;9.768;2024-02-04T00:47:21;100617.38;;;11.75;62.96
38780;BME280;29273;49.962;9.768;2024-02-04T00:49:46;100613.72;;;11.76;63.04
38780;BME280;29273;49.962;9.768;2024-02-04T00:52:12;100622.50;;;11.77;62.95
38780;BME280;29273;49.962;9.768;2024-02-04T00:54:37;100625.34;;;11.75;62.90
38780;BME280;29273;49.962;9.768;2024-02-04T00:57:03;100623.13;;;11.79;62.76
38780;BME280;29273;49.962;9.768;2024-02-04T00:59:29;100621.50;;;11.78;62.69
38780;BME280;29273;49.962;9.768;2024-02-04T01:01:54;100625.16;;;11.77;63.03
38780;BME280;29273;49.962;9.768;2024-02-04T01:04:21;100602.72;;;11.79;62.72
38780;BME280;29273;49.962;9.768;2024-02-04T01:06:48;100596.41;;;11.80;62.72
38780;BME280;29273;49.962;9.768;2024-02-04T01:09:13;100599.22;;;11.79;62.87
38780;BME280;29273;49.962;9.768;2024-02-04T01:11:39;100605.00;;;11.82;62.84
38780;BME280;29273;49.962;9.768;2024-02-04T01:14:04;100604.34;;;11.80;62.79
38780;BME280;29273;49.962;9.768;2024-02-04T01:16:30;100607.66;;;11.82;62.90
38780;BME280;29273;49.962;9.768;2024-02-04T01:18:55;100597.84;;;11.83;62.86
38780;BME280;29273;49.962;9.768;2024-02-04T01:21:21;100600.50;;;11.83;62.76
38780;BME280;29273;49.962;9.768;2024-02-04T01:23:46;100590.91;;;11.82;62.67
38780;BME280;29273;49.962;9.768;2024-02-04T01:26:12;100581.13;;;11.82;62.70
38780;BME280;29273;49.962;9.768;2024-02-04T01:28:37;100577.81;;;11.80;62.78
38780;BME280;29273;49.962;9.768;2024-02-04T01:31:03;100582.13;;;11.81;62.83
38780;BME280;29273;49.962;9.768;2024-02-04T01:33:28;100578.84;;;11.79;63.05
38780;BME280;29273;49.962;9.768;2024-02-04T01:35:54;100573.53;;;11.79;62.60
38780;BME280;29273;49.962;9.768;2024-02-04T01:38:20;100587.81;;;11.78;62.75
38780;BME280;29273;49.962;9.768;2024-02-04T01:40:46;100580.03;;;11.77;63.12
38780;BME280;29273;49.962;9.768;2024-02-04T01:43:12;100594.97;;;11.78;62.92
38780;BME280;29273;49.962;9.768;2024-02-04T01:45:37;100588.00;;;11.77;62.73
38780;BME280;29273;49.962;9.768;2024-02-04T01:48:04;100596.56;;;11.79;62.97
38780;BME280;29273;49.962;9.768;2024-02-04T01:50:29;100591.94;;;11.81;62.76
38780;BME280;29273;49.962;9.768;2024-02-04T01:52:55;100598.84;;;11.82;62.60
38780;BME280;29273;49.962;9.768;2024-02-04T01:55:21;100593.56;;;11.82;62.58
38780;BME280;29273;49.962;9.768;2024-02-04T01:57:48;100597.47;;;11.86;62.29
38780;BME280;29273;49.962;9.768;2024-02-04T02:00:15;100600.31;;;11.84;62.41
38780;BME280;29273;49.962;9.768;2024-02-04T02:02:41;100587.06;;;11.84;62.54
38780;BME280;29273;49.962;9.768;2024-02-04T02:05:07;100595.03;;;11.84;62.55
38780;BME280;29273;49.962;9.768;2024-02-04T02:07:34;100597.66;;;11.84;62.41
38780;BME280;29273;49.962;9.768;2024-02-04T02:09:59;100592.56;;;11.83;62.56
38780;BME280;29273;49.962;9.768;2024-02-04T02:12:50;100599.50;;;11.84;62.08
38780;BME280;29273;49.962;9.768;2024-02-04T02:15:22;100585.66;;;11.89;62.12
38780;BME280;29273;49.962;9.768;2024-02-04T02:17:55;100592.59;;;11.90;62.00
38780;BME280;29273;49.962;9.768;2024-02-04T02:20:32;100595.25;;;11.90;62.00
38780;BME280;29273;49.962;9.768;2024-02-04T02:23:14;100591.78;;;11.89;61.41
38780;BME280;29273;49.962;9.768;2024-02-04T02:25:42;100596.44;;;11.87;61.94
38780;BME280;29273;49.962;9.768;2024-02-04T02:28:08;100593.78;;;11.87;62.06
38780;BME280;29273;49.962;9.768;2024-02-04T02:30:35;100585.66;;;11.89;61.85
38780;BME280;29273;49.962;9.768;2024-02-04T02:33:00;100586.50;;;11.89;61.91
38780;BME280;29273;49.962;9.768;2024-02-04T02:35:26;100585.47;;;11.90;61.91
38780;BME280;29273;49.962;9.768;2024-02-04T02:38:07;100599.84;;;11.96;61.60
38780;BME280;29273;49.962;9.768;2024-02-04T02:40:45;100590.66;;;11.98;61.32
38780;BME280;29273;49.962;9.768;2024-02-04T02:43:13;100594.72;;;11.94;61.55
38780;BME280;29273;49.962;9.768;2024-02-04T02:45:41;100586.38;;;11.97;61.38
38780;BME280;29273;49.962;9.768;2024-02-04T02:48:07;100586.75;;;11.94;61.78
38780;BME280;29273;49.962;9.768;2024-02-04T02:50:37;100578.19;;;11.99;61.50
38780;BME280;29273;49.962;9.768;2024-02-04T02:53:04;100580.22;;;11.97;61.57
38780;BME280;29273;49.962;9.768;2024-02-04T02:55:29;100583.09;;;11.95;61.55
38780;BME280;29273;49.962;9.768;2024-02-04T02:57:55;100585.94;;;11.94;61.44
38780;BME280;29273;49.962;9.768;2024-02-04T03:00:20;100586.75;;;11.94;61.40
38780;BME280;29273;49.962;9.768;2024-02-04T03:02:46;100574.31;;;11.95;61.62
38780;BME280;29273;49.962;9.768;2024-02-04T03:05:12;100585.53;;;11.97;61.30
38780;BME280;29273;49.962;9.768;2024-02-04T03:07:38;100576.59;;;11.98;61.39
38780;BME280;29273;49.962;9.768;2024-02-04T03:10:03;100575.78;;;11.97;61.30
38780;BME280;29273;49.962;9.768;2024-02-04T03:12:29;100582.09;;;11.96;61.37
38780;BME280;29273;49.962;9.768;2024-02-04T03:14:55;100574.53;;;12.00;61.16
38780;BME280;29273;49.962;9.768;2024-02-04T03:17:21;100569.25;;;12.00;61.38
38780;BME280;29273;49.962;9.768;2024-02-04T03:19:48;100571.50;;;12.03;61.46
38780;BME280;29273;49.962;9.768;2024-02-04T03:22:14;100576.63;;;12.05;61.49
38780;BME280;29273;49.962;9.768;2024-02-04T03:24:40;100575.81;;;12.04;61.54
38780;BME280;29273;49.962;9.768;2024-02-04T03:27:06;100574.16;;;12.03;61.25
38780;BME280;29273;49.962;9.768;2024-02-04T03:29:31;100569.88;;;12.02;61.19
38780;BME280;29273;49.962;9.768;2024-02-04T03:31:57;100572.69;;;12.00;61.31
38780;BME280;29273;49.962;9.768;2024-02-04T03:34:23;100574.97;;;12.03;60.95
38780;BME280;29273;49.962;9.768;2024-02-04T03:36:48;100580.47;;;12.02;61.12
38780;BME280;29273;49.962;9.768;2024-02-04T03:39:14;100574.34;;;12.01;61.13
38780;BME280;29273;49.962;9.768;2024-02-04T03:41:39;100569.06;;;12.01;61.34
38780;BME280;29273;49.962;9.768;2024-02-04T03:44:05;100565.41;;;12.02;61.12
38780;BME280;29273;49.962;9.768;2024-02-04T03:46:31;100565.41;;;12.02;61.07
38780;BME280;29273;49.962;9.768;2024-02-04T03:48:57;100569.47;;;12.05;61.33
38780;BME280;29273;49.962;9.768;2024-02-04T03:51:22;100566.22;;;12.03;61.32
38780;BME280;29273;49.962;9.768;2024-02-04T03:53:49;100564.97;;;12.06;61.15
38780;BME280;29273;49.962;9.768;2024-02-04T03:56:15;100563.16;;;12.06;61.25
38780;BME280;29273;49.962;9.768;2024-02-04T03:58:41;100561.50;;;12.05;61.42
38780;BME280;29273;49.962;9.768;2024-02-04T04:01:13;100561.13;;;12.08;61.17
38780;BME280;29273;49.962;9.768;2024-02-04T04:03:42;100553.75;;;12.03;61.29
38780;BME280;29273;49.962;9.768;2024-02-04T04:06:08;100551.09;;;12.03;61.49
38780;BME280;29273;49.962;9.768;2024-02-04T04:08:34;100542.50;;;12.01;61.42
38780;BME280;29273;49.962;9.768;2024-02-04T04:11:00;100543.31;;;12.02;61.54
38780;BME280;29273;49.962;9.768;2024-02-04T04:13:25;100544.34;;;12.01;61.67
38780;BME280;29273;49.962;9.768;2024-02-04T04:15:51;100546.16;;;12.00;61.75
38780;BME280;29273;49.962;9.768;2024-02-04T04:18:16;100546.16;;;12.00;61.57
38780;BME280;29273;49.962;9.768;2024-02-04T04:20:42;100549.00;;;11.99;61.80
38780;BME280;29273;49.962;9.768;2024-02-04T04:23:07;100541.03;;;11.99;61.91
38780;BME280;29273;49.962;9.768;2024-02-04T04:25:33;100543.69;;;11.99;61.89
38780;BME280;29273;49.962;9.768;2024-02-04T04:27:58;100543.91;;;11.97;61.98
38780;BME280;29273;49.962;9.768;2024-02-04T04:30:24;100547.56;;;11.96;61.95
38780;BME280;29273;49.962;9.768;2024-02-04T04:32:49;100545.91;;;11.95;61.91
38780;BME280;29273;49.962;9.768;2024-02-04T04:35:15;100541.63;;;11.94;62.16
38780;BME280;29273;49.962;9.768;2024-02-04T04:37:40;100541.00;;;11.92;62.03
38780;BME280;29273;49.962;9.768;2024-02-04T04:40:07;100548.13;;;11.92;62.07
38780;BME280;29273;49.962;9.768;2024-02-04T04:42:32;100540.19;;;11.92;62.19
38780;BME280;29273;49.962;9.768;2024-02-04T04:44:58;100541.38;;;11.89;62.20
38780;BME280;29273;49.962;9.768;2024-02-04T04:47:23;100538.72;;;11.89;62.40
38780;BME280;29273;49.962;9.768;2024-02-04T04:49:49;100547.69;;;11.88;62.13
38780;BME280;29273;49.962;9.768;2024-02-04T04:52:14;100553.97;;;11.87;62.22
38780;BME280;29273;49.962;9.768;2024-02-04T04:54:40;100548.06;;;11.85;62.33
38780;BME280;29273;49.962;9.768;2024-02-04T04:57:06;100543.56;;;11.85;62.42
38780;BME280;29273;49.962;9.768;2024-02-04T04:59:31;100534.97;;;11.83;62.34
38780;BME280;29273;49.962;9.768;2024-02-04T05:01:57;100542.94;;;11.83;62.22
38780;BME280;29273;49.962;9.768;2024-02-04T05:04:22;100540.47;;;11.82;62.54
38780;BME280;29273;49.962;9.768;2024-02-04T05:06:51;100550.09;;;11.83;62.31
38780;BME280;29273;49.962;9.768;2024-02-04T05:09:16;100540.47;;;11.82;62.41
38780;BME280;29273;49.962;9.768;2024-02-04T05:11:42;100544.16;;;11.81;62.37
38780;BME280;29273;49.962;9.768;2024-02-04T05:14:08;100554.78;;;11.81;62.48
38780;BME280;29273;49.962;9.768;2024-02-04T05:16:34;100546.81;;;11.81;62.40
38780;BME280;29273;49.962;9.768;2024-02-04T05:19:01;100537.38;;;11.78;62.52
38780;BME280;29273;49.962;9.768;2024-02-04T05:21:27;100538.84;;;11.81;62.56
38780;BME280;29273;49.962;9.768;2024-02-04T05:23:52;100527.41;;;11.80;62.57
38780;BME280;29273;49.962;9.768;2024-02-04T05:26:18;100543.31;;;11.80;62.45
38780;BME280;29273;49.962;9.768;2024-02-04T05:28:46;100536.38;;;11.79;62.52
38780;BME280;29273;49.962;9.768;2024-02-04T05:31:11;100536.38;;;11.79;62.58
38780;BME280;29273;49.962;9.768;2024-02-04T05:33:37;100542.69;;;11.78;62.56
38780;BME280;29273;49.962;9.768;2024-02-04T05:36:03;100529.63;;;11.77;62.35
38780;BME280;29273;49.962;9.768;2024-02-04T05:38:29;100531.28;;;11.78;62.58
38780;BME280;29273;49.962;9.768;2024-02-04T05:40:54;100519.00;;;11.77;62.53
38780;BME280;29273;49.962;9.768;2024-02-04T05:43:20;100521.47;;;11.78;62.64
38780;BME280;29273;49.962;9.768;2024-02-04T05:45:46;100517.16;;;11.77;62.73
38780;BME280;29273;49.962;9.768;2024-02-04T05:48:11;100511.22;;;11.75;62.90
38780;BME280;29273;49.962;9.768;2024-02-04T05:50:37;100505.91;;;11.75;62.79
38780;BME280;29273;49.962;9.768;2024-02-04T05:53:02;100507.16;;;11.73;62.99
38780;BME280;29273;49.962;9.768;2024-02-04T05:55:29;100508.94;;;11.72;62.94
38780;BME280;29273;49.962;9.768;2024-02-04T05:57:54;100502.03;;;11.71;62.92
38780;BME280;29273;49.962;9.768;2024-02-04T06:00:20;100504.69;;;11.71;62.88
38780;BME280;29273;49.962;9.768;2024-02-04T06:02:46;100513.44;;;11.72;62.92
38780;BME280;29273;49.962;9.768;2024-02-04T06:05:12;100500.38;;;11.70;63.39
38780;BME280;29273;49.962;9.768;2024-02-04T06:07:38;100506.50;;;11.71;63.33
38780;BME280;29273;49.962;9.768;2024-02-04T06:10:05;100502.22;;;11.70;63.50
38780;BME280;29273;49.962;9.768;2024-02-04T06:12:30;100506.31;;;11.72;63.06
38780;BME280;29273;49.962;9.768;2024-02-04T06:14:56;100514.44;;;11.71;63.21
38780;BME280;29273;49.962;9.768;2024-02-04T06:17:21;100506.72;;;11.69;63.44
38780;BME280;29273;49.962;9.768;2024-02-04T06:19:47;100514.44;;;11.71;63.38
38780;BME280;29273;49.962;9.768;2024-02-04T06:22:14;100523.06;;;11.73;62.93
38780;BME280;29273;49.962;9.768;2024-02-04T06:24:40;100516.09;;;11.72;63.39
38780;BME280;29273;49.962;9.768;2024-02-04T06:27:08;100521.03;;;11.75;63.19
38780;BME280;29273;49.962;9.768;2024-02-04T06:29:34;100511.59;;;11.72;63.34
38780;BME280;29273;49.962;9.768;2024-02-04T06:31:59;100524.06;;;11.72;63.46
38780;BME280;29273;49.962;9.768;2024-02-04T06:34:25;100519.75;;;11.71;63.26
38780;BME280;29273;49.962;9.768;2024-02-04T06:36:50;100510.19;;;11.70;63.72
38780;BME280;29273;49.962;9.768;2024-02-04T06:39:16;100501.41;;;11.69;63.56
38780;BME280;29273;49.962;9.768;2024-02-04T06:41:41;100508.16;;;11.72;63.56
38780;BME280;29273;49.962;9.768;2024-02-04T06:44:07;100495.88;;;11.71;63.45
38780;BME280;29273;49.962;9.768;2024-02-04T06:46:32;100514.44;;;11.71;63.30
38780;BME280;29273;49.962;9.768;2024-02-04T06:48:58;100500.19;;;11.72;63.37
38780;BME280;29273;49.962;9.768;2024-02-04T06:51:24;100504.69;;;11.71;63.58
38780;BME280;29273;49.962;9.768;2024-02-04T06:53:49;100498.16;;;11.74;63.25
38780;BME280;29273;49.962;9.768;2024-02-04T06:56:15;100509.97;;;11.71;63.61
38780;BME280;29273;49.962;9.768;2024-02-04T06:58:41;100497.97;;;11.75;63.05
38780;BME280;29273;49.962;9.768;2024-02-04T07:01:07;100503.28;;;11.75;63.23
38780;BME280;29273;49.962;9.768;2024-02-04T07:03:33;100488.19;;;11.76;63.21
38780;BME280;29273;49.962;9.768;2024-02-04T07:05:59;100491.66;;;11.76;63.26
38780;BME280;29273;49.962;9.768;2024-02-04T07:08:25;100482.22;;;11.74;63.39
38780;BME280;29273;49.962;9.768;2024-02-04T07:10:50;100474.09;;;11.75;63.13
38780;BME280;29273;49.962;9.768;2024-02-04T07:13:16;100479.38;;;11.75;63.30
38780;BME280;29273;49.962;9.768;2024-02-04T07:15:42;100481.84;;;11.77;63.34
38780;BME280;29273;49.962;9.768;2024-02-04T07:18:07;100486.16;;;11.78;63.38
38780;BME280;29273;49.962;9.768;2024-02-04T07:20:33;100481.66;;;11.78;63.13
38780;BME280;29273;49.962;9.768;2024-02-04T07:22:58;100485.78;;;11.81;63.03
38780;BME280;29273;49.962;9.768;2024-02-04T07:25:24;100496.38;;;11.81;63.07
38780;BME280;29273;49.962;9.768;2024-02-04T07:27:49;100485.59;;;11.82;63.21
38780;BME280;29273;49.962;9.768;2024-02-04T07:30:15;100500.28;;;11.85;63.23
38780;BME280;29273;49.962;9.768;2024-02-04T07:32:41;100503.75;;;11.85;63.20
38780;BME280;29273;49.962;9.768;2024-02-04T07:35:06;100502.75;;;11.87;63.13
38780;BME280;29273;49.962;9.768;2024-02-04T07:37:34;100515.63;;;11.90;62.84
38780;BME280;29273;49.962;9.768;2024-02-04T07:40:00;100512.81;;;11.91;62.94
38780;BME280;29273;49.962;9.768;2024-02-04T07:42:27;100517.94;;;11.93;62.68
38780;BME280;29273;49.962;9.768;2024-02-04T07:44:53;100511.13;;;11.90;62.99
38780;BME280;29273;49.962;9.768;2024-02-04T07:47:18;100513.44;;;11.93;62.61
38780;BME280;29273;49.962;9.768;2024-02-04T07:49:47;100499.16;;;11.94;62.87
38780;BME280;29273;49.962;9.768;2024-02-04T07:52:13;100507.13;;;11.94;62.66
38780;BME280;29273;49.962;9.768;2024-02-04T07:54:38;100506.94;;;11.96;62.78
38780;BME280;29273;49.962;9.768;2024-02-04T07:57:04;100506.75;;;11.97;62.59
38780;BME280;29273;49.962;9.768;2024-02-04T07:59:29;100497.94;;;11.97;62.67
38780;BME280;29273;49.962;9.768;2024-02-04T08:01:55;100496.75;;;11.99;62.45
38780;BME280;29273;49.962;9.768;2024-02-04T08:04:20;100488.59;;;12.01;62.77
38780;BME280;29273;49.962;9.768;2024-02-04T08:06:46;100496.38;;;12.02;62.54
38780;BME280;29273;49.962;9.768;2024-02-04T08:09:11;100489.03;;;12.05;62.67
38780;BME280;29273;49.962;9.768;2024-02-04T08:11:37;100480.03;;;12.06;62.44
38780;BME280;29273;49.962;9.768;2024-02-04T08:14:03;100482.50;;;12.07;62.25
38780;BME280;29273;49.962;9.768;2024-02-04T08:16:28;100484.16;;;12.08;62.52
38780;BME280;29273;49.962;9.768;2024-02-04T08:18:54;100487.59;;;12.09;62.16
38780;BME280;29273;49.962;9.768;2024-02-04T08:21:20;100489.88;;;12.12;62.35
38780;BME280;29273;49.962;9.768;2024-02-04T08:23:45;100497.03;;;12.11;62.29
38780;BME280;29273;49.962;9.768;2024-02-04T08:26:11;100488.88;;;12.13;62.22
38780;BME280;29273;49.962;9.768;2024-02-04T08:28:36;100494.00;;;12.14;62.14
38780;BME280;29273;49.962;9.768;2024-02-04T08:31:02;100509.72;;;12.16;62.40
38780;BME280;29273;49.962;9.768;2024-02-04T08:33:27;100511.34;;;12.17;62.17
38780;BME280;29273;49.962;9.768;2024-02-04T08:35:53;100514.84;;;12.17;62.26
38780;BME280;29273;49.962;9.768;2024-02-04T08:38:18;100506.03;;;12.17;62.75
38780;BME280;29273;49.962;9.768;2024-02-04T08:40:44;100519.31;;;12.17;62.65
38780;BME280;29273;49.962;9.768;2024-02-04T08:43:09;100507.50;;;12.19;62.33
38780;BME280;29273;49.962;9.768;2024-02-04T08:45:35;100512.63;;;12.21;62.48
38780;BME280;29273;49.962;9.768;2024-02-04T08:48:00;100502.19;;;12.19;62.39
38780;BME280;29273;49.962;9.768;2024-02-04T08:50:26;100509.97;;;12.21;62.61
38780;BME280;29273;49.962;9.768;2024-02-04T08:52:51;100513.44;;;12.21;62.92
38780;BME280;29273;49.962;9.768;2024-02-04T08:55:17;100509.78;;;12.23;62.79
38780;BME280;29273;49.962;9.768;2024-02-04T08:57:42;100509.56;;;12.24;62.82
38780;BME280;29273;49.962;9.768;2024-02-04T09:00:08;100516.50;;;12.25;62.63
38780;BME280;29273;49.962;9.768;2024-02-04T09:02:35;100516.50;;;12.25;62.62
38780;BME280;29273;49.962;9.768;2024-02-04T09:05:00;100522.63;;;12.26;62.48
38780;BME280;29273;49.962;9.768;2024-02-04T09:07:26;100500.38;;;12.27;62.55
38780;BME280;29273;49.962;9.768;2024-02-04T09:09:51;100508.16;;;12.28;62.08
38780;BME280;29273;49.962;9.768;2024-02-04T09:12:17;100508.16;;;12.28;62.57
38780;BME280;29273;49.962;9.768;2024-02-04T09:14:43;100507.16;;;12.29;62.37
38780;BME280;29273;49.962;9.768;2024-02-04T09:17:08;100515.13;;;12.29;62.37
38780;BME280;29273;49.962;9.768;2024-02-04T09:19:35;100498.72;;;12.26;62.18
38780;BME280;29273;49.962;9.768;2024-02-04T09:22:01;100504.88;;;12.26;62.01
38780;BME280;29273;49.962;9.768;2024-02-04T09:24:30;100503.66;;;12.29;61.85
38780;BME280;29273;49.962;9.768;2024-02-04T09:26:55;100507.72;;;12.25;62.11
38780;BME280;29273;49.962;9.768;2024-02-04T09:29:21;100517.53;;;12.24;62.29
38780;BME280;29273;49.962;9.768;2024-02-04T09:31:47;100518.16;;;12.26;62.04
38780;BME280;29273;49.962;9.768;2024-02-04T09:34:14;100517.28;;;12.19;61.86
38780;BME280;29273;49.962;9.768;2024-02-04T09:36:40;100511.78;;;12.20;61.79
38780;BME280;29273;49.962;9.768;2024-02-04T09:39:05;100504.22;;;12.17;62.14
38780;BME280;29273;49.962;9.768;2024-02-04T09:41:31;100496.25;;;12.17;61.99
38780;BME280;29273;49.962;9.768;2024-02-04T09:43:58;100490.72;;;12.19;62.16
38780;BME280;29273;49.962;9.768;2024-02-04T09:46:23;100490.72;;;12.19;62.12
38780;BME280;29273;49.962;9.768;2024-02-04T09:48:51;100496.50;;;12.23;62.04
38780;BME280;29273;49.962;9.768;2024-02-04T09:51:16;100490.53;;;12.20;62.35
38780;BME280;29273;49.962;9.768;2024-02-04T09:53:45;100487.91;;;12.27;62.20
38780;BME280;29273;49.962;9.768;2024-02-04T09:56:11;100487.31;;;12.25;62.17
38780;BME280;29273;49.962;9.768;2024-02-04T09:58:37;100485.69;;;12.24;62.08
38780;BME280;29273;49.962;9.768;2024-02-04T10:01:06;100480.41;;;12.31;61.90
38780;BME280;29273;49.962;9.768;2024-02-04T10:03:34;100476.47;;;12.27;62.18
38780;BME280;29273;49.962;9.768;2024-02-04T10:05:59;100475.47;;;12.28;61.85
38780;BME280;29273;49.962;9.768;2024-02-04T10:08:25;100480.59;;;12.29;61.91
38780;BME280;29273;49.962;9.768;2024-02-04T10:10:50;100479.13;;;12.27;61.44
38780;BME280;29273;49.962;9.768;2024-02-04T10:13:16;100486.09;;;12.28;61.65
38780;BME280;29273;49.962;9.768;2024-02-04T10:15:41;100474.41;;;12.22;61.40
38780;BME280;29273;49.962;9.768;2024-02-04T10:18:08;100477.50;;;12.26;61.55
38780;BME280;29273;49.962;9.768;2024-02-04T10:20:33;100482.19;;;12.24;62.09
38780;BME280;29273;49.962;9.768;2024-02-04T10:22:59;100474.59;;;12.20;62.30
38780;BME280;29273;49.962;9.768;2024-02-04T10:25:25;100487.06;;;12.20;62.31
38780;BME280;29273;49.962;9.768;2024-02-04T10:27:52;100486.50;;;12.25;62.48
38780;BME280;29273;49.962;9.768;2024-02-04T10:30:21;100493.22;;;12.27;62.33
38780;BME280;29273;49.962;9.768;2024-02-04T10:32:50;100481.59;;;12.28;62.23
38780;BME280;29273;49.962;9.768;2024-02-04T10:35:16;100480.16;;;12.26;62.44
38780;BME280;29273;49.962;9.768;2024-02-04T10:37:44;100469.13;;;12.29;62.85
38780;BME280;29273;49.962;9.768;2024-02-04T10:40:10;100460.16;;;12.30;62.68
38780;BME280;29273;49.962;9.768;2024-02-04T10:42:37;100453.41;;;12.34;62.57
38780;BME280;29273;49.962;9.768;2024-02-04T10:45:06;100440.78;;;12.36;62.01
38780;BME280;29273;49.962;9.768;2024-02-04T10:47:33;100452.22;;;12.36;61.90
38780;BME280;29273;49.962;9.768;2024-02-04T10:50:02;100447.34;;;12.40;61.98
38780;BME280;29273;49.962;9.768;2024-02-04T10:52:35;100441.81;;;12.42;61.57
38780;BME280;29273;49.962;9.768;2024-02-04T10:55:06;100442.25;;;12.45;61.57
38780;BME280;29273;49.962;9.768;2024-02-04T10:57:32;100439.38;;;12.40;61.50
38780;BME280;29273;49.962;9.768;2024-02-04T10:59:59;100441.81;;;12.42;61.39
38780;BME280;29273;49.962;9.768;2024-02-04T11:02:25;100434.66;;;12.42;61.48
38780;BME280;29273;49.962;9.768;2024-02-04T11:04:51;100437.31;;;12.42;61.01
38780;BME280;29273;49.962;9.768;2024-02-04T11:07:19;100429.16;;;12.44;60.93
38780;BME280;29273;49.962;9.768;2024-02-04T11:09:46;100430.81;;;12.45;61.12
38780;BME280;29273;49.962;9.768;2024-02-04T11:12:16;100424.50;;;12.46;61.23
38780;BME280;29273;49.962;9.768;2024-02-04T11:14:47;100407.72;;;12.52;60.97
38780;BME280;29273;49.962;9.768;2024-02-04T11:17:28;100420.81;;;12.53;60.99
38780;BME280;29273;49.962;9.768;2024-02-04T11:25:30;100399.56;;;12.53;61.32
38780;BME280;29273;49.962;9.768;2024-02-04T11:28:00;100406.72;;;12.53;61.29
38780;BME280;29273;49.962;9.768;2024-02-04T11:30:26;100400.81;;;12.57;60.77
38780;BME280;29273;49.962;9.768;2024-02-04T11:32:52;100385.69;;;12.58;60.81
38780;BME280;29273;49.962;9.768;2024-02-04T11:35:19;100395.53;;;12.64;60.56
38780;BME280;29273;49.962;9.768;2024-02-04T11:37:46;100391.22;;;12.63;60.43
38780;BME280;29273;49.962;9.768;2024-02-04T11:40:15;100378.94;;;12.69;60.90
38780;BME280;29273;49.962;9.768;2024-02-04T11:42:45;100373.03;;;12.67;60.84
38780;BME280;29273;49.962;9.768;2024-02-04T11:45:12;100381.22;;;12.72;61.22
38780;BME280;29273;49.962;9.768;2024-02-04T11:47:38;100381.41;;;12.70;61.26
38780;BME280;29273;49.962;9.768;2024-02-04T11:50:05;100379.38;;;12.72;61.02
38780;BME280;29273;49.962;9.768;2024-02-04T11:52:30;100390.44;;;12.76;60.79
38780;BME280;29273;49.962;9.768;2024-02-04T11:54:57;100390.22;;;12.77;60.86
38780;BME280;29273;49.962;9.768;2024-02-04T11:57:23;100389.19;;;12.78;60.66
38780;BME280;29273;49.962;9.768;2024-02-04T11:59:49;100392.69;;;12.79;60.69
38780;BME280;29273;49.962;9.768;2024-02-04T12:02:16;100389.59;;;12.82;60.69
38780;BME280;29273;49.962;9.768;2024-02-04T12:04:44;100383.88;;;12.85;60.70
38780;BME280;29273;49.962;9.768;2024-02-04T12:07:10;100373.66;;;12.82;60.60
38780;BME280;29273;49.962;9.768;2024-02-04T12:09:36;100377.97;;;12.83;60.77
38780;BME280;29273;49.962;9.768;2024-02-04T12:12:02;100366.91;;;12.80;60.80
38780;BME280;29273;49.962;9.768;2024-02-04T12:14:28;100376.31;;;12.82;60.73
38780;BME280;29273;49.962;9.768;2024-02-04T12:16:55;100365.69;;;12.82;60.79
38780;BME280;29273;49.962;9.768;2024-02-04T12:19:23;100359.75;;;12.80;60.81
38780;BME280;29273;49.962;9.768;2024-02-04T12:21:48;100372.03;;;12.81;60.60
38780;BME280;29273;49.962;9.768;2024-02-04T12:24:14;100377.56;;;12.80;60.46
38780;BME280;29273;49.962;9.768;2024-02-04T12:26:40;100375.69;;;12.80;60.78
38780;BME280;29273;49.962;9.768;2024-02-04T12:29:06;100366.91;;;12.80;60.54
38780;BME280;29273;49.962;9.768;2024-02-04T12:31:32;100368.56;;;12.81;60.72
38780;BME280;29273;49.962;9.768;2024-02-04T12:34:00;100363.66;;;12.84;60.65
38780;BME280;29273;49.962;9.768;2024-02-04T12:36:30;100364.66;;;12.83;60.42
38780;BME280;29273;49.962;9.768;2024-02-04T12:38:57;100356.09;;;12.81;60.39
38780;BME280;29273;49.962;9.768;2024-02-04T12:41:24;100350.16;;;12.79;60.63
38780;BME280;29273;49.962;9.768;2024-02-04T12:43:54;100371.84;;;12.83;60.38
38780;BME280;29273;49.962;9.768;2024-02-04T12:46:20;100360.78;;;12.79;60.41
38780;BME280;29273;49.962;9.768;2024-02-04T12:48:53;100349.13;;;12.87;60.90
38780;BME280;29273;49.962;9.768;2024-02-04T12:51:29;100354.44;;;12.87;60.54